createdAt,value
2019-03-18T00:03:38.752Z,3.9
2019-03-18T00:09:33.737Z,3.05
2019-03-18T00:15:28.755Z,4.14
2019-03-18T00:21:23.732Z,3.73
2019-03-18T00:27:18.742Z,3.55
2019-03-18T00:33:13.734Z,4.53
2019-03-18T00:39:08.741Z,5.5
2019-03-18T00:45:14.012Z,3.6
2019-03-18T00:50:58.765Z,2.92
2019-03-18T00:56:53.778Z,4.21
2019-03-18T01:02:49.590Z,4.93
2019-03-18T01:08:43.745Z,3.79
2019-03-18T01:14:38.756Z,3.78
2019-03-18T01:20:33.812Z,4.04
2019-03-18T01:26:28.770Z,4.96
2019-03-18T01:32:23.778Z,2.78
2019-03-18T01:38:18.848Z,2.68
2019-03-18T01:44:13.806Z,3.43
2019-03-18T01:50:08.786Z,4.2
2019-03-18T01:56:03.783Z,2.73
2019-03-18T02:01:58.792Z,3.27
2019-03-18T02:07:53.827Z,2.74
2019-03-18T02:13:48.811Z,4.1
2019-03-18T02:19:43.826Z,3.51
2019-03-18T02:25:38.792Z,2.08
2019-03-18T02:31:33.821Z,1.91
2019-03-18T02:37:28.825Z,3.71
2019-03-18T02:43:23.811Z,2.89
2019-03-18T02:49:18.833Z,2.97
2019-03-18T02:55:13.882Z,5.06
2019-03-18T03:01:08.821Z,3.4
2019-03-18T03:07:03.858Z,3.22
2019-03-18T03:12:58.830Z,3.08
2019-03-18T03:18:53.848Z,4.77
2019-03-18T03:24:48.844Z,3.48
2019-03-18T03:30:43.909Z,3.61
2019-03-18T03:36:38.848Z,2
2019-03-18T03:42:33.880Z,3.66
2019-03-18T03:48:28.859Z,1.85
2019-03-18T03:54:23.883Z,3.7
2019-03-18T04:00:18.919Z,6.31
2019-03-18T04:06:13.878Z,2.55
2019-03-18T04:12:08.886Z,2.9
2019-03-18T04:18:03.873Z,1.72
2019-03-18T04:23:58.877Z,3.7
2019-03-18T04:29:53.894Z,3.06
2019-03-18T04:35:48.885Z,3
2019-03-18T04:41:43.886Z,2.46
2019-03-18T04:47:38.895Z,2.3
2019-03-18T04:53:33.883Z,2.34
2019-03-18T04:59:28.884Z,3.79
2019-03-18T05:05:23.892Z,3.58
2019-03-18T05:11:18.951Z,3.05
2019-03-18T05:17:25.767Z,3.32
2019-03-18T05:23:08.914Z,2.32
2019-03-18T05:29:03.946Z,3.15
2019-03-18T05:34:58.925Z,2.62
2019-03-18T05:40:53.906Z,2.19
2019-03-18T05:46:48.924Z,3.74
2019-03-18T05:52:43.903Z,9.62
2019-03-18T05:58:38.969Z,5.11
2019-03-18T06:04:33.920Z,3.96
2019-03-18T06:10:28.935Z,1.87
2019-03-18T06:16:23.976Z,2.68
2019-03-18T06:22:18.935Z,3.79
2019-03-18T06:28:13.934Z,4.28
2019-03-18T06:34:08.959Z,2.37
2019-03-18T06:40:03.931Z,2.76
2019-03-18T06:45:58.947Z,2.93
2019-03-18T06:51:53.930Z,1.82
2019-03-18T06:57:48.982Z,3.13
2019-03-18T07:03:43.978Z,2.13
2019-03-18T07:09:38.982Z,3.18
2019-03-18T07:15:33.951Z,2.05
2019-03-18T07:21:28.954Z,3.13
2019-03-18T07:27:23.955Z,3.94
2019-03-18T07:33:18.950Z,3.1
2019-03-18T07:39:14.008Z,1.89
2019-03-18T07:45:08.970Z,2.42
2019-03-18T07:51:03.963Z,2.49
2019-03-18T07:56:58.990Z,4.18
2019-03-18T08:02:53.970Z,2.81
2019-03-18T08:08:48.999Z,2.29
2019-03-18T08:14:43.983Z,3.85
2019-03-18T08:20:38.997Z,3.15
2019-03-18T08:26:34.007Z,2.25
2019-03-18T08:32:28.988Z,2.44
2019-03-18T08:38:23.996Z,4.31
2019-03-18T08:44:19.037Z,3.73
2019-03-18T08:50:14.005Z,2.72
2019-03-18T08:56:09.052Z,3.99
2019-03-18T09:02:04.009Z,4.07
2019-03-18T09:07:59.009Z,5.45
2019-03-18T09:13:54.030Z,3.16
2019-03-18T09:19:49.035Z,4.45
2019-03-18T09:25:44.072Z,4.03
2019-03-18T09:31:39.047Z,3.19
2019-03-18T09:37:34.053Z,3.3
2019-03-18T09:43:29.027Z,3.61
2019-03-18T09:49:24.079Z,4.95
2019-03-18T09:55:19.103Z,3.88
2019-03-18T10:01:14.070Z,3.39
2019-03-18T10:07:09.066Z,3.49
2019-03-18T10:13:04.113Z,2.74
2019-03-18T10:18:59.066Z,3.66
2019-03-18T10:24:54.075Z,4.3
2019-03-18T10:30:49.105Z,3.9
2019-03-18T10:36:44.082Z,3.05
2019-03-18T10:42:39.095Z,4.32
2019-03-18T10:48:34.113Z,3.26
2019-03-18T10:54:31.003Z,7.5
2019-03-18T11:00:24.084Z,3.82
2019-03-18T11:06:19.135Z,5.5
2019-03-18T11:12:14.099Z,4.82
2019-03-18T11:18:09.116Z,4.43
2019-03-18T11:24:04.097Z,5.31
2019-03-18T11:29:59.090Z,5.04
2019-03-18T11:35:55.712Z,2.87
2019-03-18T11:41:49.095Z,5.36
2019-03-18T11:47:44.101Z,4.88
2019-03-18T11:53:39.140Z,3.35
2019-03-18T11:59:34.108Z,5.47
2019-03-18T12:05:29.147Z,5.42
2019-03-18T12:11:24.196Z,4.49
2019-03-18T12:17:19.143Z,5.53
2019-03-18T12:23:14.138Z,2.45
2019-03-18T12:29:09.154Z,3.62
2019-03-18T12:35:04.143Z,6.34
2019-03-18T12:40:59.109Z,3.78
2019-03-18T12:46:54.168Z,4.08
2019-03-18T12:52:49.121Z,1.94
2019-03-18T12:58:44.135Z,3.23
2019-03-18T13:04:39.144Z,1.91
2019-03-18T13:10:34.226Z,4.1
2019-03-18T13:16:29.143Z,2.63
2019-03-18T13:22:24.184Z,5.2
2019-03-18T13:28:19.185Z,2.68
2019-03-18T13:34:14.154Z,4.36
2019-03-18T13:40:09.167Z,6.77
2019-03-18T13:46:04.210Z,5.38
2019-03-18T13:51:59.181Z,13
2019-03-18T13:57:54.176Z,9.23
2019-03-18T14:03:49.195Z,5.16
2019-03-18T14:09:44.200Z,10.04
2019-03-18T14:15:39.217Z,8.57
2019-03-18T14:21:34.197Z,13.93
2019-03-18T14:27:29.203Z,15.42
2019-03-18T14:33:24.209Z,10.09
2019-03-18T14:39:19.223Z,3.67
2019-03-18T14:45:14.201Z,2.97
2019-03-18T14:51:09.222Z,12.28
2019-03-18T14:57:04.204Z,2.54
2019-03-18T15:02:59.248Z,8.6
2019-03-18T15:08:54.229Z,9.66
2019-03-18T15:14:49.252Z,6.94
2019-03-18T15:20:44.246Z,11.33
2019-03-18T15:26:39.201Z,15.04
2019-03-18T15:32:34.234Z,11.67
2019-03-18T15:38:29.263Z,3.53
2019-03-18T15:44:24.238Z,11.35
2019-03-18T15:50:19.230Z,6.12
2019-03-18T15:56:14.255Z,4.38
2019-03-18T16:02:09.239Z,4
2019-03-18T16:08:04.274Z,5.4
2019-03-18T16:13:59.269Z,8.38
2019-03-18T16:19:54.268Z,7.53
2019-03-18T16:25:49.236Z,4.7
2019-03-18T16:31:44.303Z,7.67
2019-03-18T16:37:39.290Z,4.3
2019-03-18T16:43:34.256Z,6.31
2019-03-18T16:49:29.291Z,2.07
2019-03-18T16:55:24.272Z,1.9
2019-03-18T17:01:19.278Z,5.03
2019-03-18T17:07:14.345Z,11.02
2019-03-18T17:13:09.265Z,6.25
2019-03-18T17:19:04.289Z,3.85
2019-03-18T17:24:59.271Z,6.08
2019-03-18T17:30:54.294Z,7.74
2019-03-18T17:36:49.298Z,9
2019-03-18T17:42:44.305Z,3.79
2019-03-18T17:48:39.309Z,2.92
2019-03-18T17:54:34.327Z,3.84
2019-03-18T18:00:32.278Z,3.9
2019-03-18T18:06:24.319Z,1.96
2019-03-18T18:12:19.315Z,3.34
2019-03-18T18:18:14.307Z,4.23
2019-03-18T18:24:09.337Z,4.07
2019-03-18T18:30:04.321Z,1.95
2019-03-18T18:35:59.326Z,5.61
2019-03-18T18:41:54.329Z,3.37
2019-03-18T18:47:49.318Z,2.83
2019-03-18T18:53:44.355Z,2.64
2019-03-18T18:59:39.335Z,2.45
2019-03-18T19:05:34.337Z,4.77
2019-03-18T19:11:29.360Z,2.21
2019-03-18T19:17:24.339Z,4.24
2019-03-18T19:23:19.408Z,3.94
2019-03-18T19:29:14.346Z,2.49
2019-03-18T19:35:09.352Z,2.95
2019-03-18T19:41:04.390Z,0.56
2019-03-18T19:46:59.349Z,0.73
2019-03-18T19:52:54.363Z,1.92
2019-03-18T19:58:49.361Z,2.08
2019-03-18T20:04:44.377Z,4.63
2019-03-18T20:10:39.405Z,1.82
2019-03-18T20:16:34.397Z,2.05
2019-03-18T20:22:29.412Z,1.53
2019-03-18T20:28:24.378Z,0.91
2019-03-18T20:34:21.312Z,1.17
2019-03-18T20:40:14.373Z,2.64
2019-03-18T20:46:09.479Z,2.25
2019-03-18T20:52:04.418Z,1.22
2019-03-18T20:57:59.431Z,1.47
2019-03-18T21:03:54.387Z,1.78
2019-03-18T21:09:49.404Z,1.14
2019-03-18T21:15:44.391Z,1.14
2019-03-18T21:21:39.425Z,2.33
2019-03-18T21:27:34.469Z,0.86
2019-03-18T21:33:29.394Z,1.68
2019-03-18T21:39:24.447Z,1.29
2019-03-18T21:45:19.472Z,0.67
2019-03-18T21:51:14.465Z,2.1
2019-03-18T21:57:09.416Z,0.84
2019-03-18T22:03:04.437Z,1.96
2019-03-18T22:08:59.464Z,1.04
2019-03-18T22:14:54.497Z,1.43
2019-03-18T22:20:49.462Z,1.5
2019-03-18T22:26:44.456Z,1.87
2019-03-18T22:32:39.564Z,0.87
2019-03-18T22:38:34.463Z,1.23
2019-03-18T22:44:29.492Z,0.86
2019-03-18T22:50:24.473Z,1.89
2019-03-18T22:56:19.470Z,1.43
2019-03-18T23:02:14.497Z,1.3
2019-03-18T23:08:09.465Z,1.5
2019-03-18T23:14:04.519Z,2.33
2019-03-18T23:19:59.461Z,2.9
2019-03-18T23:25:54.469Z,1.73
2019-03-18T23:31:49.470Z,1.74
2019-03-18T23:37:44.488Z,1.5
2019-03-18T23:43:39.523Z,2.01
2019-03-18T23:49:34.508Z,1.17
2019-03-18T23:55:29.509Z,1
